Terminal Aerodrome Forecast
Issued by NWS Twin Cities, MN

Home | Current Version | Previous Version | Graphics & Text | Print | Product List | Glossary On
Versions: 1 2 3 4 5 6 7 8 9 10 11 12 13 14 15 16
564
FTUS43 KMPX 232320
TAFEAU
TAF
KEAU 232320Z 2400/2424 30013KT P6SM VCSH SCT050 BKN090
     FM240200 30008KT P6SM BKN100
     FM241600 29013G19KT P6SM SCT025 BKN050 PROB30 2420/2424 5SM
      -TSRA BKN040CB=

USA.gov is the U.S. government's official web portal to all federal, state and local government web resources and services.